createdAt,value
2023-11-22T00:00:11.666Z,15.38
2023-11-22T00:01:13.551Z,10.55
2023-11-22T00:02:15.384Z,13.85
2023-11-22T00:03:17.159Z,11.55
2023-11-22T00:04:19.604Z,9.48
2023-11-22T00:05:21.396Z,11.05
2023-11-22T00:06:23.469Z,10.85
2023-11-22T00:07:26.007Z,12.80
2023-11-22T00:08:27.888Z,13.93
2023-11-22T00:09:29.650Z,13.50
2023-11-22T00:10:32.844Z,12.18
2023-11-22T00:11:34.560Z,13.70
2023-11-22T00:12:36.271Z,12.68
2023-11-22T00:13:38.008Z,11.60
2023-11-22T00:14:39.843Z,11.02
2023-11-22T00:15:41.612Z,11.13
2023-11-22T00:16:43.408Z,10.43
2023-11-22T00:17:45.331Z,10.05
2023-11-22T00:18:47.110Z,9.00
2023-11-22T00:19:48.846Z,10.98
2023-11-22T00:20:50.497Z,7.85
2023-11-22T00:21:52.232Z,10.68
2023-11-22T00:22:53.986Z,12.50
2023-11-22T00:23:55.876Z,9.90
2023-11-22T00:24:57.591Z,11.10
2023-11-22T00:26:00.739Z,10.05
2023-11-22T00:27:02.388Z,11.13
2023-11-22T00:28:06.589Z,10.93
2023-11-22T00:29:08.346Z,10.40
2023-11-22T00:30:11.054Z,9.88
2023-11-22T00:31:13.475Z,11.82
2023-11-22T00:32:15.310Z,10.70
2023-11-22T00:33:17.148Z,11.02
2023-11-22T00:34:21.366Z,10.75
2023-11-22T00:35:23.283Z,11.60
2023-11-22T00:36:24.994Z,8.90
2023-11-22T00:37:27.578Z,11.68
2023-11-22T00:38:29.423Z,10.98
2023-11-22T00:39:31.295Z,10.30
2023-11-22T00:40:33.221Z,9.27
2023-11-22T00:41:36.358Z,14.07
2023-11-22T00:42:38.861Z,9.38
2023-11-22T00:43:40.774Z,10.60
2023-11-22T00:44:42.468Z,10.77
2023-11-22T00:45:44.338Z,9.55
2023-11-22T00:46:46.033Z,9.40
2023-11-22T00:47:47.929Z,8.73
2023-11-22T00:48:49.661Z,7.80
2023-11-22T00:49:51.351Z,11.07
2023-11-22T00:50:53.065Z,11.23
2023-11-22T00:51:54.956Z,12.10
2023-11-22T00:52:56.736Z,8.73
2023-11-22T00:53:58.731Z,8.30
2023-11-22T00:55:00.490Z,8.95
2023-11-22T00:56:02.220Z,8.82
2023-11-22T00:57:05.816Z,9.60
2023-11-22T00:58:07.513Z,12.45
2023-11-22T00:59:09.325Z,11.10
2023-11-22T01:00:11.812Z,10.48
2023-11-22T01:01:14.295Z,8.35
2023-11-22T01:02:16.145Z,10.13
2023-11-22T01:03:18.033Z,13.15
2023-11-22T01:04:19.760Z,9.90
2023-11-22T01:05:21.551Z,10.57
2023-11-22T01:06:23.250Z,10.32
2023-11-22T01:07:25.406Z,10.55
2023-11-22T01:08:27.194Z,9.15
2023-11-22T01:09:29.090Z,7.60
2023-11-22T01:10:30.883Z,11.32
2023-11-22T01:11:32.659Z,9.45
2023-11-22T01:12:35.889Z,8.25
2023-11-22T01:13:38.229Z,8.98
2023-11-22T01:14:40.042Z,9.30
2023-11-22T01:15:42.030Z,8.95
2023-11-22T01:16:43.747Z,8.68
2023-11-22T01:17:45.684Z,10.88
2023-11-22T01:18:47.608Z,9.68
2023-11-22T01:19:50.674Z,12.75
2023-11-22T01:20:52.380Z,9.35
2023-11-22T01:21:54.111Z,8.32
2023-11-22T01:22:55.847Z,12.75
2023-11-22T01:23:57.562Z,11.85
2023-11-22T01:24:59.335Z,9.43
2023-11-22T01:26:01.412Z,8.27
2023-11-22T01:27:03.359Z,8.85
2023-11-22T01:28:06.762Z,12.52
2023-11-22T01:29:08.500Z,8.07
2023-11-22T01:30:10.728Z,10.98
2023-11-22T01:31:13.332Z,10.55
2023-11-22T01:32:15.067Z,8.20
2023-11-22T01:33:16.850Z,9.18
2023-11-22T01:34:18.652Z,9.20
2023-11-22T01:35:20.382Z,8.45
2023-11-22T01:36:22.228Z,6.68
2023-11-22T01:37:23.966Z,11.23
2023-11-22T01:38:25.850Z,8.52
2023-11-22T01:39:27.738Z,9.45
2023-11-22T01:40:29.419Z,8.45
2023-11-22T01:41:31.755Z,8.82
2023-11-22T01:42:33.468Z,8.23
2023-11-22T01:43:37.242Z,9.60
2023-11-22T01:44:39.057Z,12.48
2023-11-22T01:45:40.784Z,12.25
2023-11-22T01:46:43.584Z,9.40
2023-11-22T01:47:45.401Z,9.65
2023-11-22T01:48:47.222Z,9.30
2023-11-22T01:49:49.196Z,7.50
2023-11-22T01:50:52.031Z,9.82
2023-11-22T01:51:53.999Z,10.57
2023-11-22T01:52:55.715Z,9.63
2023-11-22T01:53:58.721Z,8.07
2023-11-22T01:55:02.721Z,7.68
2023-11-22T01:56:05.023Z,8.77
2023-11-22T01:57:07.810Z,9.50
2023-11-22T01:58:09.709Z,9.57
2023-11-22T01:59:14.804Z,8.65
2023-11-22T02:00:18.107Z,9.65
2023-11-22T02:01:19.848Z,8.43
2023-11-22T02:02:21.709Z,10.13
2023-11-22T02:03:23.838Z,8.68
2023-11-22T02:04:25.907Z,8.52
2023-11-22T02:05:27.703Z,8.80
2023-11-22T02:06:29.551Z,10.93
2023-11-22T02:07:31.305Z,9.05
2023-11-22T02:08:33.125Z,10.27
2023-11-22T02:09:34.873Z,9.00
2023-11-22T02:10:36.623Z,12.20
2023-11-22T02:11:38.331Z,9.45
2023-11-22T02:12:40.175Z,8.70
2023-11-22T02:13:41.982Z,9.73
2023-11-22T02:14:45.217Z,8.25
2023-11-22T02:15:46.952Z,8.98
2023-11-22T02:16:49.010Z,9.90
2023-11-22T02:17:53.509Z,10.70
2023-11-22T02:18:59.209Z,10.30
2023-11-22T02:20:01.103Z,9.93
2023-11-22T02:21:03.118Z,9.80
2023-11-22T02:22:04.929Z,9.25
2023-11-22T02:23:11.210Z,9.40
2023-11-22T02:24:13.442Z,8.18
2023-11-22T02:25:15.328Z,8.80
2023-11-22T02:26:17.160Z,7.93
2023-11-22T02:27:18.958Z,8.93
2023-11-22T02:28:20.820Z,10.85
2023-11-22T02:29:22.725Z,10.10
2023-11-22T02:30:24.483Z,8.55
2023-11-22T02:31:26.889Z,9.00
2023-11-22T02:32:28.644Z,7.20
2023-11-22T02:33:30.351Z,10.23
2023-11-22T02:34:32.467Z,8.80
2023-11-22T02:35:34.729Z,8.98
2023-11-22T02:36:36.514Z,8.18
2023-11-22T02:37:38.177Z,8.90
2023-11-22T02:38:41.386Z,10.80
2023-11-22T02:39:52.404Z,8.80
2023-11-22T02:40:54.469Z,10.05
2023-11-22T02:41:56.597Z,12.18
2023-11-22T02:42:58.316Z,10.95
2023-11-22T02:44:00.400Z,9.10
2023-11-22T02:45:02.138Z,9.48
2023-11-22T02:46:04.003Z,10.43
2023-11-22T02:47:06.026Z,9.80
2023-11-22T02:48:07.843Z,9.75
2023-11-22T02:49:09.576Z,10.65
2023-11-22T02:50:12.830Z,8.77
2023-11-22T02:51:14.566Z,10.25
2023-11-22T02:52:16.290Z,8.20
2023-11-22T02:53:18.025Z,6.53
2023-11-22T02:54:21.162Z,9.88
2023-11-22T02:55:22.851Z,10.07
2023-11-22T02:56:24.591Z,7.82
2023-11-22T02:57:26.588Z,8.65
2023-11-22T02:58:28.944Z,6.60
2023-11-22T02:59:30.762Z,7.47
2023-11-22T03:00:32.827Z,7.85
2023-11-22T03:01:34.762Z,9.35
2023-11-22T03:02:36.878Z,9.40
2023-11-22T03:03:38.737Z,8.15
2023-11-22T03:04:40.477Z,8.48
2023-11-22T03:05:42.390Z,8.95
2023-11-22T03:06:44.110Z,10.43
2023-11-22T03:07:46.116Z,9.38
2023-11-22T03:08:47.793Z,8.52
2023-11-22T03:09:51.442Z,10.32
2023-11-22T03:10:55.168Z,8.50
2023-11-22T03:11:57.269Z,8.98
2023-11-22T03:12:59.033Z,7.70
2023-11-22T03:14:00.816Z,7.13
2023-11-22T03:15:02.735Z,10.65
2023-11-22T03:16:05.182Z,8.50
2023-11-22T03:17:06.973Z,8.00
2023-11-22T03:18:08.758Z,10.07
2023-11-22T03:19:10.503Z,9.65
2023-11-22T03:20:13.013Z,8.25
2023-11-22T03:21:14.716Z,7.22
2023-11-22T03:22:16.517Z,8.60
2023-11-22T03:23:18.387Z,8.80
2023-11-22T03:24:20.222Z,8.27
2023-11-22T03:25:23.390Z,10.60
2023-11-22T03:26:25.202Z,10.68
2023-11-22T03:27:26.986Z,9.52
2023-11-22T03:28:28.847Z,5.80
2023-11-22T03:29:30.861Z,8.80
2023-11-22T03:30:32.593Z,9.18
2023-11-22T03:31:34.300Z,8.23
2023-11-22T03:32:35.994Z,9.30
2023-11-22T03:33:37.968Z,9.38
2023-11-22T03:34:39.879Z,9.05
2023-11-22T03:35:42.269Z,7.53
2023-11-22T03:36:45.979Z,7.78
2023-11-22T03:37:47.948Z,8.73
2023-11-22T03:38:49.829Z,10.75
2023-11-22T03:39:51.525Z,9.50
2023-11-22T03:40:54.599Z,8.38
2023-11-22T03:41:56.450Z,7.68
2023-11-22T03:42:58.164Z,11.55
2023-11-22T03:44:00.088Z,10.90
2023-11-22T03:45:03.146Z,8.75
2023-11-22T03:46:04.827Z,8.27
2023-11-22T03:47:06.852Z,9.10
2023-11-22T03:48:08.804Z,8.90
2023-11-22T03:49:10.609Z,8.63
2023-11-22T03:50:12.493Z,9.48
2023-11-22T03:51:14.309Z,7.45
2023-11-22T03:52:16.784Z,9.60
2023-11-22T03:53:18.652Z,9.88
2023-11-22T03:54:20.436Z,14.60
2023-11-22T03:55:22.188Z,11.70
2023-11-22T03:56:25.528Z,8.27
2023-11-22T03:57:27.255Z,6.88
2023-11-22T03:58:29.000Z,7.60
2023-11-22T03:59:31.056Z,9.20
2023-11-22T04:00:32.843Z,8.32
2023-11-22T04:01:34.674Z,11.07
2023-11-22T04:02:36.677Z,9.13
2023-11-22T04:03:38.473Z,8.38
2023-11-22T04:04:40.301Z,9.93
2023-11-22T04:05:42.197Z,9.18
2023-11-22T04:06:43.912Z,8.75
2023-11-22T04:07:45.626Z,8.02
2023-11-22T04:08:48.514Z,8.43
2023-11-22T04:09:50.207Z,9.55
2023-11-22T04:10:51.921Z,9.00
2023-11-22T04:11:55.067Z,8.45
2023-11-22T04:12:56.716Z,8.38
2023-11-22T04:13:58.394Z,8.68
2023-11-22T04:15:00.372Z,11.20
2023-11-22T04:16:02.438Z,9.65
2023-11-22T04:17:04.897Z,10.98
2023-11-22T04:18:07.261Z,8.13
2023-11-22T04:19:09.406Z,10.73
2023-11-22T04:20:12.161Z,8.38
2023-11-22T04:21:14.118Z,9.18
2023-11-22T04:22:15.978Z,8.77
2023-11-22T04:23:17.802Z,7.28
2023-11-22T04:24:19.550Z,8.50
2023-11-22T04:25:21.246Z,7.03
2023-11-22T04:26:24.713Z,10.02
2023-11-22T04:27:27.791Z,8.93
2023-11-22T04:28:30.088Z,8.98
2023-11-22T04:29:31.854Z,9.32
2023-11-22T04:30:33.558Z,8.25
2023-11-22T04:31:35.233Z,8.23
2023-11-22T04:32:37.469Z,8.30
2023-11-22T04:33:39.433Z,8.25
2023-11-22T04:34:41.217Z,8.63
2023-11-22T04:35:43.211Z,8.05
2023-11-22T04:36:44.948Z,7.68
2023-11-22T04:37:46.658Z,6.93
2023-11-22T04:38:48.497Z,8.63
2023-11-22T04:39:50.233Z,10.13
2023-11-22T04:40:51.917Z,6.82
2023-11-22T04:41:53.742Z,9.70
2023-11-22T04:42:57.425Z,8.35
2023-11-22T04:43:59.450Z,8.25
2023-11-22T04:45:01.526Z,9.50
2023-11-22T04:46:03.306Z,6.55
2023-11-22T04:47:05.416Z,7.85
2023-11-22T04:48:07.440Z,6.25
2023-11-22T04:49:09.331Z,7.90
2023-11-22T04:50:11.434Z,10.18
2023-11-22T04:51:13.177Z,7.18
2023-11-22T04:52:15.248Z,10.10
2023-11-22T04:53:16.947Z,8.73
2023-11-22T04:54:18.767Z,7.53
2023-11-22T04:55:20.595Z,8.45
2023-11-22T04:56:22.357Z,9.10
2023-11-22T04:57:25.957Z,11.05
2023-11-22T04:58:28.992Z,9.27
2023-11-22T04:59:30.758Z,7.68
2023-11-22T05:00:32.561Z,8.82
2023-11-22T05:01:34.355Z,8.63
2023-11-22T05:02:36.451Z,10.07
2023-11-22T05:03:38.381Z,9.52
2023-11-22T05:04:40.185Z,8.02
2023-11-22T05:05:42.073Z,9.23
2023-11-22T05:06:43.909Z,9.07
2023-11-22T05:07:45.628Z,8.15
2023-11-22T05:08:47.352Z,9.40
2023-11-22T05:09:49.228Z,8.63
2023-11-22T05:10:52.058Z,10.48
2023-11-22T05:11:54.756Z,10.60
2023-11-22T05:12:56.570Z,9.02
2023-11-22T05:13:59.607Z,10.13
2023-11-22T05:15:01.295Z,11.88
2023-11-22T05:16:03.213Z,8.30
2023-11-22T05:17:05.217Z,12.95
2023-11-22T05:18:06.951Z,7.47
2023-11-22T05:19:08.687Z,8.07
2023-11-22T05:20:11.016Z,10.23
2023-11-22T05:21:12.788Z,10.93
2023-11-22T05:22:14.551Z,9.25
2023-11-22T05:23:16.331Z,8.90
2023-11-22T05:24:18.079Z,9.20
2023-11-22T05:25:19.830Z,9.00
2023-11-22T05:26:21.734Z,6.70
2023-11-22T05:27:23.603Z,8.63
2023-11-22T05:28:25.417Z,10.07
2023-11-22T05:29:35.430Z,8.35
2023-11-22T05:30:42.551Z,6.95
2023-11-22T05:31:44.423Z,9.88
2023-11-22T05:32:46.160Z,8.50
2023-11-22T05:33:47.987Z,8.20
2023-11-22T05:34:49.724Z,9.18
2023-11-22T05:35:51.531Z,8.63
2023-11-22T05:36:53.233Z,10.48
2023-11-22T05:37:55.026Z,10.55
2023-11-22T05:38:56.940Z,12.27
2023-11-22T05:39:58.658Z,9.63
2023-11-22T05:41:00.491Z,9.10
2023-11-22T05:42:04.572Z,8.48
2023-11-22T05:44:10.004Z,11.68
2023-11-22T05:45:13.570Z,8.45
2023-11-22T05:46:15.335Z,10.27
2023-11-22T05:47:17.081Z,11.10
2023-11-22T05:48:18.848Z,9.88
2023-11-22T05:49:20.722Z,9.30
2023-11-22T05:50:22.634Z,9.82
2023-11-22T05:51:24.512Z,9.45
2023-11-22T05:52:27.556Z,8.27
2023-11-22T05:53:29.377Z,8.80
2023-11-22T05:54:31.254Z,10.38
2023-11-22T05:55:33.020Z,9.70
2023-11-22T05:56:34.800Z,7.93
2023-11-22T05:57:36.564Z,10.48
2023-11-22T05:58:40.710Z,8.32
2023-11-22T05:59:42.560Z,9.05
2023-11-22T06:00:45.952Z,9.13
2023-11-22T06:01:47.717Z,8.90
2023-11-22T06:02:49.580Z,10.35
2023-11-22T06:03:51.614Z,9.30
2023-11-22T06:04:53.463Z,9.40
2023-11-22T06:05:55.244Z,9.02
2023-11-22T06:06:56.966Z,9.60
2023-11-22T06:07:58.774Z,9.27
2023-11-22T06:09:00.469Z,8.55
2023-11-22T06:10:02.276Z,9.32
2023-11-22T06:11:04.019Z,8.73
2023-11-22T06:12:06.483Z,10.25
2023-11-22T06:13:08.164Z,11.98
2023-11-22T06:14:10.011Z,7.47
2023-11-22T06:15:11.860Z,15.00
2023-11-22T06:16:15.023Z,11.32
2023-11-22T06:17:16.846Z,7.85
2023-11-22T06:18:18.650Z,8.02
2023-11-22T06:19:20.429Z,9.45
2023-11-22T06:20:22.121Z,9.77
2023-11-22T06:21:24.007Z,8.23
2023-11-22T06:22:25.937Z,9.00
2023-11-22T06:23:27.707Z,9.52
2023-11-22T06:24:29.860Z,9.55
2023-11-22T06:25:31.704Z,11.52
2023-11-22T06:26:33.521Z,10.30
2023-11-22T06:27:35.461Z,9.63
2023-11-22T06:28:37.145Z,8.98
2023-11-22T06:29:39.017Z,9.18
2023-11-22T06:30:41.099Z,10.32
2023-11-22T06:31:44.203Z,8.63
2023-11-22T06:32:46.228Z,9.30
2023-11-22T06:33:48.369Z,11.38
2023-11-22T06:34:50.361Z,10.65
2023-11-22T06:35:52.272Z,11.82
2023-11-22T06:36:53.961Z,10.38
2023-11-22T06:37:55.702Z,8.85
2023-11-22T06:38:57.405Z,11.57
2023-11-22T06:39:59.119Z,9.52
2023-11-22T06:41:00.914Z,13.85
2023-11-22T06:42:02.592Z,9.45
2023-11-22T06:43:07.063Z,7.63
2023-11-22T06:44:08.967Z,12.70
2023-11-22T06:45:10.880Z,8.00
2023-11-22T06:46:12.776Z,9.82
2023-11-22T06:47:16.104Z,7.95
2023-11-22T06:48:17.977Z,9.73
2023-11-22T06:49:19.901Z,11.48
2023-11-22T06:50:21.699Z,9.75
2023-11-22T06:51:23.442Z,8.95
2023-11-22T06:52:25.594Z,9.50
2023-11-22T06:53:27.374Z,9.20
2023-11-22T06:54:29.125Z,9.52
2023-11-22T06:55:30.797Z,9.93
2023-11-22T06:56:32.595Z,8.82
2023-11-22T06:57:34.564Z,11.00
2023-11-22T06:58:36.235Z,11.43
2023-11-22T06:59:38.044Z,7.75
2023-11-22T07:00:39.897Z,10.95
2023-11-22T07:01:41.679Z,10.68
2023-11-22T07:02:44.862Z,10.45
2023-11-22T07:03:46.849Z,13.38
2023-11-22T07:04:48.863Z,11.60
2023-11-22T07:05:50.756Z,12.48
2023-11-22T07:06:52.631Z,12.45
2023-11-22T07:07:54.355Z,9.32
2023-11-22T07:08:56.031Z,8.63
2023-11-22T07:09:59.839Z,11.05
2023-11-22T07:11:02.085Z,9.93
2023-11-22T07:12:04.384Z,10.00
2023-11-22T07:13:06.372Z,9.18
2023-11-22T07:14:08.215Z,8.07
2023-11-22T07:15:11.129Z,8.77
2023-11-22T07:16:12.898Z,7.65
2023-11-22T07:17:16.662Z,10.20
2023-11-22T07:18:19.925Z,9.45
2023-11-22T07:19:24.229Z,13.18
2023-11-22T07:20:25.976Z,9.50
2023-11-22T07:21:27.763Z,9.27
2023-11-22T07:22:29.462Z,8.77
2023-11-22T07:23:31.259Z,11.70
2023-11-22T07:24:33.164Z,7.55
2023-11-22T07:25:35.020Z,10.10
2023-11-22T07:26:36.956Z,10.05
2023-11-22T07:27:38.664Z,12.05
2023-11-22T07:28:40.381Z,12.00
2023-11-22T07:29:44.687Z,8.93
2023-11-22T07:30:46.868Z,8.43
2023-11-22T07:31:48.679Z,7.13
2023-11-22T07:32:51.196Z,10.15
2023-11-22T07:33:54.410Z,9.80
2023-11-22T07:34:56.162Z,8.93
2023-11-22T07:35:57.960Z,10.27
2023-11-22T07:36:59.650Z,11.07
2023-11-22T07:38:01.450Z,8.15
2023-11-22T07:39:03.440Z,9.02
2023-11-22T07:40:09.109Z,11.45
2023-11-22T07:41:11.582Z,12.82
2023-11-22T07:42:13.257Z,7.93
2023-11-22T07:43:15.328Z,11.73
2023-11-22T07:44:17.064Z,9.93
2023-11-22T07:45:18.837Z,9.88
2023-11-22T07:46:20.583Z,11.43
2023-11-22T07:47:22.463Z,9.73
2023-11-22T07:48:24.274Z,8.75
2023-11-22T07:49:29.995Z,11.20
2023-11-22T07:50:31.841Z,9.88
2023-11-22T07:51:33.583Z,9.63
2023-11-22T07:52:35.293Z,9.30
2023-11-22T07:53:36.985Z,12.73
2023-11-22T07:54:38.905Z,11.45
2023-11-22T07:55:40.729Z,8.95
2023-11-22T07:56:42.756Z,7.90
2023-11-22T07:57:44.855Z,7.20
2023-11-22T07:58:46.611Z,9.40
2023-11-22T07:59:48.407Z,10.40
2023-11-22T08:00:50.202Z,8.95
2023-11-22T08:01:52.001Z,11.18
2023-11-22T08:02:53.850Z,11.02
2023-11-22T08:03:55.719Z,10.90
2023-11-22T08:04:58.828Z,14.77
2023-11-22T08:06:00.502Z,10.25
2023-11-22T08:07:02.273Z,9.48
2023-11-22T08:08:04.145Z,11.63
2023-11-22T08:09:05.921Z,13.30
2023-11-22T08:10:09.413Z,10.35
2023-11-22T08:11:11.142Z,14.05
2023-11-22T08:12:12.993Z,12.05
2023-11-22T08:13:14.776Z,9.88
2023-11-22T08:14:16.743Z,12.10
2023-11-22T08:15:18.624Z,11.13
2023-11-22T08:16:20.417Z,12.15
2023-11-22T08:17:22.423Z,12.07
2023-11-22T08:18:24.290Z,9.88
2023-11-22T08:19:26.122Z,8.85
2023-11-22T08:20:29.308Z,11.23
2023-11-22T08:21:31.027Z,13.48
2023-11-22T08:22:32.810Z,12.20
2023-11-22T08:23:34.587Z,8.40
2023-11-22T08:24:36.445Z,10.48
2023-11-22T08:25:38.160Z,10.40
2023-11-22T08:26:39.915Z,12.98
2023-11-22T08:27:41.828Z,8.75
2023-11-22T08:28:43.760Z,13.60
2023-11-22T08:29:45.522Z,11.02
2023-11-22T08:30:48.256Z,12.05
2023-11-22T08:31:49.990Z,11.70
2023-11-22T08:32:52.061Z,13.27
2023-11-22T08:33:54.024Z,10.10
2023-11-22T08:34:55.762Z,10.75
2023-11-22T08:35:58.863Z,14.68
2023-11-22T08:37:00.798Z,14.23
2023-11-22T08:38:02.713Z,10.50
2023-11-22T08:39:06.215Z,8.93
2023-11-22T08:40:09.859Z,10.45
2023-11-22T08:41:11.705Z,9.35
2023-11-22T08:42:15.133Z,10.73
2023-11-22T08:43:19.896Z,11.75
2023-11-22T08:44:21.669Z,9.65
2023-11-22T08:45:23.356Z,10.77
2023-11-22T08:46:25.088Z,9.90
2023-11-22T08:47:26.920Z,10.95
2023-11-22T08:48:28.771Z,29.65
2023-11-22T08:49:30.748Z,39.67
2023-11-22T08:50:32.488Z,25.73
2023-11-22T08:51:35.559Z,31.23
2023-11-22T08:52:37.346Z,27.95
2023-11-22T08:53:39.292Z,34.53
2023-11-22T08:54:41.105Z,46.47
2023-11-22T08:55:42.923Z,33.65
2023-11-22T08:56:44.673Z,10.77
2023-11-22T08:57:46.420Z,19.98
2023-11-22T08:58:49.757Z,23.08
2023-11-22T08:59:52.900Z,24.08
2023-11-22T09:00:55.963Z,22.45
2023-11-22T09:01:57.861Z,23.80
2023-11-22T09:02:59.853Z,17.55
2023-11-22T09:04:01.667Z,19.85
2023-11-22T09:05:03.611Z,18.23
2023-11-22T09:06:08.952Z,13.73
2023-11-22T09:07:12.154Z,15.30
2023-11-22T09:08:22.432Z,18.10
2023-11-22T09:09:27.656Z,18.05
2023-11-22T09:10:29.382Z,24.60
2023-11-22T09:11:31.255Z,14.18
2023-11-22T09:12:33.053Z,14.15
2023-11-22T09:13:34.780Z,10.98
2023-11-22T09:14:36.776Z,21.98
2023-11-22T09:15:38.807Z,13.45
2023-11-22T09:16:40.783Z,12.60
2023-11-22T09:17:44.262Z,10.18
2023-11-22T09:18:46.106Z,10.88
2023-11-22T09:19:47.952Z,9.85
2023-11-22T09:20:49.836Z,10.15
2023-11-22T09:21:54.272Z,17.63
2023-11-22T09:22:58.466Z,15.60
2023-11-22T09:24:00.252Z,15.20
2023-11-22T09:25:02.042Z,9.45
2023-11-22T09:26:06.721Z,10.73
2023-11-22T09:27:08.440Z,8.63
2023-11-22T09:28:10.369Z,24.13
2023-11-22T09:29:12.624Z,14.30
2023-11-22T09:30:15.578Z,10.60
2023-11-22T09:31:17.317Z,10.82
2023-11-22T09:32:19.146Z,8.52
2023-11-22T09:33:21.033Z,12.00
2023-11-22T09:34:22.884Z,12.05
2023-11-22T09:35:24.650Z,10.38
2023-11-22T09:36:26.402Z,10.07
2023-11-22T09:37:28.156Z,18.77
2023-11-22T09:38:31.573Z,22.20
2023-11-22T09:39:33.389Z,17.25
2023-11-22T09:40:35.240Z,14.48
2023-11-22T09:41:37.697Z,12.10
2023-11-22T09:42:39.517Z,13.77
2023-11-22T09:43:41.373Z,8.48
2023-11-22T09:44:45.173Z,10.13
2023-11-22T09:45:48.489Z,20.27
2023-11-22T09:46:52.555Z,12.27
2023-11-22T09:47:56.251Z,13.75
2023-11-22T09:48:58.645Z,10.07
2023-11-22T09:50:03.905Z,10.65
2023-11-22T09:51:10.081Z,8.70
2023-11-22T09:52:21.656Z,21.58
2023-11-22T09:53:31.039Z,10.23
2023-11-22T09:54:35.754Z,8.77
2023-11-22T09:55:37.805Z,10.50
2023-11-22T09:56:40.253Z,9.70
2023-11-22T09:57:42.546Z,8.93
2023-11-22T09:58:44.429Z,13.35
2023-11-22T09:59:48.933Z,10.07
2023-11-22T10:00:52.033Z,9.43
2023-11-22T10:01:54.307Z,9.95
2023-11-22T10:02:56.263Z,9.90
2023-11-22T10:03:58.917Z,8.05
2023-11-22T10:05:00.765Z,10.65
2023-11-22T10:06:02.537Z,7.05
2023-11-22T10:07:04.987Z,10.45
2023-11-22T10:08:06.793Z,11.57
2023-11-22T10:09:09.225Z,10.43
2023-11-22T10:10:13.611Z,12.30
2023-11-22T10:12:20.268Z,8.00
2023-11-22T10:13:22.077Z,7.40
2023-11-22T10:14:24.529Z,8.13
2023-11-22T10:15:29.251Z,9.95
2023-11-22T10:16:31.057Z,8.25
2023-11-22T10:17:32.884Z,8.70
2023-11-22T10:18:34.782Z,11.18
2023-11-22T10:19:36.839Z,6.93
2023-11-22T10:20:40.200Z,6.30
2023-11-22T10:21:42.044Z,10.30
2023-11-22T10:22:48.064Z,6.90
2023-11-22T10:23:49.986Z,7.32
2023-11-22T10:24:51.975Z,12.00
2023-11-22T10:25:55.074Z,11.57
2023-11-22T10:26:57.136Z,9.25
2023-11-22T10:27:59.030Z,9.68
2023-11-22T10:29:01.116Z,8.95
2023-11-22T10:30:03.215Z,9.50
2023-11-22T10:31:08.216Z,14.98
2023-11-22T10:32:10.090Z,10.38
2023-11-22T10:33:12.118Z,10.45
2023-11-22T10:34:13.921Z,9.38
2023-11-22T10:35:16.098Z,7.43
2023-11-22T10:36:18.142Z,9.82
2023-11-22T10:37:19.967Z,8.50
2023-11-22T10:38:22.292Z,12.07
2023-11-22T10:39:24.196Z,9.85
2023-11-22T10:40:25.888Z,9.00
2023-11-22T10:41:29.109Z,6.97
2023-11-22T10:42:31.243Z,8.18
2023-11-22T10:43:33.821Z,7.18
2023-11-22T10:44:36.082Z,7.07
2023-11-22T10:45:44.183Z,7.65
2023-11-22T10:46:48.739Z,6.97
2023-11-22T10:47:51.096Z,10.13
2023-11-22T10:48:52.935Z,7.57
2023-11-22T10:49:54.743Z,7.93
2023-11-22T10:50:58.482Z,7.57
2023-11-22T10:52:02.164Z,13.60
2023-11-22T10:53:08.382Z,7.18
2023-11-22T10:54:10.556Z,9.77
2023-11-22T10:55:13.802Z,7.70
2023-11-22T10:56:16.908Z,7.40
2023-11-22T10:57:25.442Z,7.18
2023-11-22T10:58:28.996Z,7.28
2023-11-22T10:59:32.378Z,6.53
2023-11-22T11:00:35.711Z,7.82
2023-11-22T11:01:38.453Z,7.18
2023-11-22T11:02:42.961Z,7.55
2023-11-22T11:03:51.415Z,7.50
2023-11-22T11:04:59.937Z,7.70
2023-11-22T11:06:03.857Z,6.97
2023-11-22T11:08:10.037Z,6.03
2023-11-22T11:09:12.273Z,8.45
2023-11-22T11:10:20.599Z,7.70
2023-11-22T11:11:26.897Z,6.80
2023-11-22T11:12:30.143Z,6.80
2023-11-22T11:13:31.959Z,9.07
2023-11-22T11:14:33.962Z,6.10
2023-11-22T11:15:36.418Z,6.65
2023-11-22T11:16:40.690Z,5.93
2023-11-22T11:17:43.449Z,7.28
2023-11-22T11:18:45.468Z,7.38
2023-11-22T11:19:47.207Z,8.10
2023-11-22T11:20:50.111Z,8.45
2023-11-22T11:21:52.171Z,6.03
2023-11-22T11:22:56.157Z,8.38
2023-11-22T11:23:59.610Z,6.50
2023-11-22T11:25:02.825Z,7.50
2023-11-22T11:26:10.872Z,9.35
2023-11-22T11:27:12.686Z,7.05
2023-11-22T11:28:15.828Z,7.47
2023-11-22T11:29:31.232Z,6.60
2023-11-22T11:30:43.735Z,9.07
2023-11-22T11:31:46.565Z,9.30
2023-11-22T11:32:51.187Z,7.07
2023-11-22T11:33:57.146Z,7.13
2023-11-22T11:34:59.179Z,8.23
2023-11-22T11:36:02.972Z,8.02
2023-11-22T11:37:04.935Z,7.85
2023-11-22T11:38:06.746Z,7.35
2023-11-22T11:39:13.945Z,7.72
2023-11-22T11:40:28.028Z,6.05
2023-11-22T11:41:31.372Z,8.35
2023-11-22T11:42:33.171Z,8.75
2023-11-22T11:43:43.493Z,9.35
2023-11-22T11:45:12.466Z,6.40
2023-11-22T11:46:15.189Z,18.17
2023-11-22T11:47:17.942Z,14.40
2023-11-22T11:48:20.340Z,10.85
2023-11-22T11:49:23.626Z,8.55
2023-11-22T11:50:25.510Z,9.18
2023-11-22T11:51:29.367Z,8.63
2023-11-22T11:52:31.087Z,10.00
2023-11-22T11:53:32.957Z,7.53
2023-11-22T11:54:34.997Z,7.32
2023-11-22T11:55:37.126Z,7.38
2023-11-22T11:56:39.034Z,6.20
2023-11-22T11:57:40.795Z,7.65
2023-11-22T11:58:44.293Z,8.57
2023-11-22T11:59:46.059Z,8.27
2023-11-22T12:00:47.887Z,8.63
2023-11-22T12:01:53.841Z,7.18
2023-11-22T12:02:55.731Z,6.90
2023-11-22T12:03:57.765Z,5.80
2023-11-22T12:04:59.816Z,5.90
2023-11-22T12:06:01.546Z,6.78
2023-11-22T12:07:03.587Z,6.65
2023-11-22T12:08:05.734Z,8.50
2023-11-22T12:09:07.534Z,7.78
2023-11-22T12:10:10.741Z,7.70
2023-11-22T12:11:14.402Z,5.80
2023-11-22T12:12:16.196Z,6.68
2023-11-22T12:13:18.800Z,5.68
2023-11-22T12:14:22.259Z,7.63
2023-11-22T12:15:24.279Z,5.95
2023-11-22T12:16:28.418Z,6.00
2023-11-22T12:17:30.911Z,4.85
2023-11-22T12:18:40.829Z,7.88
2023-11-22T12:19:42.696Z,6.35
2023-11-22T12:20:55.398Z,7.75
2023-11-22T12:21:57.568Z,7.47
2023-11-22T12:22:59.818Z,4.78
2023-11-22T12:24:01.656Z,8.52
2023-11-22T12:25:03.824Z,7.97
2023-11-22T12:26:06.040Z,5.85
2023-11-22T12:27:10.594Z,8.30
2023-11-22T12:28:12.428Z,5.57
2023-11-22T12:29:14.207Z,6.80
2023-11-22T12:30:34.106Z,6.97
2023-11-22T12:31:37.181Z,8.73
2023-11-22T12:32:40.861Z,7.30
2023-11-22T12:33:43.981Z,7.45
2023-11-22T12:34:45.793Z,7.40
2023-11-22T12:35:48.308Z,8.27
2023-11-22T12:36:50.600Z,6.40
2023-11-22T12:37:53.527Z,7.80
2023-11-22T12:38:56.544Z,5.35
2023-11-22T12:39:58.291Z,5.57
2023-11-22T12:41:00.288Z,7.60
2023-11-22T12:42:09.280Z,6.32
2023-11-22T12:43:13.636Z,5.88
2023-11-22T12:44:15.554Z,7.65
2023-11-22T12:45:24.266Z,6.22
2023-11-22T12:46:27.434Z,6.63
2023-11-22T12:47:35.559Z,5.50
2023-11-22T12:48:37.509Z,6.85
2023-11-22T12:49:45.061Z,5.47
2023-11-22T12:50:50.069Z,6.25
2023-11-22T12:51:53.009Z,6.75
2023-11-22T12:52:54.845Z,6.53
2023-11-22T12:53:56.798Z,6.68
2023-11-22T12:55:00.204Z,5.57
2023-11-22T12:56:02.063Z,4.88
2023-11-22T12:57:04.016Z,4.75
2023-11-22T12:58:06.713Z,5.72
2023-11-22T12:59:08.570Z,6.97
2023-11-22T13:00:12.031Z,4.50
2023-11-22T13:01:13.780Z,6.35
2023-11-22T13:02:17.254Z,5.75
2023-11-22T13:03:19.306Z,5.78
2023-11-22T13:04:21.389Z,5.00
2023-11-22T13:05:23.459Z,5.72
2023-11-22T13:06:25.457Z,4.88
2023-11-22T13:07:31.375Z,5.85
2023-11-22T13:08:33.026Z,5.30
2023-11-22T13:09:34.683Z,6.80
2023-11-22T13:10:36.360Z,6.15
2023-11-22T13:11:38.121Z,6.05
2023-11-22T13:12:39.786Z,6.78
2023-11-22T13:13:41.398Z,8.48
2023-11-22T13:14:43.121Z,5.03
2023-11-22T13:15:45.574Z,6.70
2023-11-22T13:16:47.374Z,5.20
2023-11-22T13:17:51.026Z,5.25
2023-11-22T13:18:52.967Z,6.55
2023-11-22T13:19:54.573Z,6.22
2023-11-22T13:20:56.311Z,6.18
2023-11-22T13:21:58.031Z,5.28
2023-11-22T13:22:59.834Z,4.93
2023-11-22T13:24:01.788Z,6.82
2023-11-22T13:25:03.642Z,5.90
2023-11-22T13:26:05.988Z,9.65
2023-11-22T13:27:10.424Z,7.35
2023-11-22T13:28:12.058Z,5.85
2023-11-22T13:29:13.723Z,6.97
2023-11-22T13:30:15.791Z,6.13
2023-11-22T13:31:17.425Z,4.57
2023-11-22T13:32:19.114Z,5.07
2023-11-22T13:33:22.352Z,4.30
2023-11-22T13:34:24.050Z,4.80
2023-11-22T13:35:26.323Z,5.47
2023-11-22T13:36:28.036Z,4.45
2023-11-22T13:37:29.653Z,5.88
2023-11-22T13:38:31.373Z,4.75
2023-11-22T13:39:33.072Z,5.85
2023-11-22T13:40:34.736Z,5.35
2023-11-22T13:41:36.539Z,5.20
2023-11-22T13:42:38.282Z,6.10
2023-11-22T13:43:40.091Z,5.20
2023-11-22T13:44:41.791Z,5.38
2023-11-22T13:45:43.673Z,4.85